createdAt,value
2019-03-23T00:01:41.544Z,6.30
2019-03-23T00:04:13.025Z,6.31
2019-03-23T00:06:44.250Z,6.25
2019-03-23T00:09:15.608Z,6.23
2019-03-23T00:11:46.950Z,6.22
2019-03-23T00:14:18.254Z,6.21
2019-03-23T00:16:49.514Z,6.18
2019-03-23T00:19:20.808Z,6.17
2019-03-23T00:21:53.327Z,6.07
2019-03-23T00:24:24.618Z,5.95
2019-03-23T00:26:55.973Z,5.90
2019-03-23T00:29:27.251Z,5.85
2019-03-23T00:31:58.597Z,5.81
2019-03-23T00:34:29.819Z,5.71
2019-03-23T00:37:01.230Z,5.66
2019-03-23T00:39:32.485Z,5.55
2019-03-23T00:42:03.771Z,5.49
2019-03-23T00:44:35.006Z,5.52
2019-03-23T00:47:06.351Z,5.54
2019-03-23T00:49:37.582Z,5.52
2019-03-23T00:52:08.929Z,5.52
2019-03-23T00:54:40.161Z,5.49
2019-03-23T00:57:11.503Z,5.43
2019-03-23T00:59:42.805Z,5.39
2019-03-23T01:02:14.251Z,5.33
2019-03-23T01:04:45.588Z,5.26
2019-03-23T01:07:29.873Z,5.24
2019-03-23T01:10:01.170Z,5.20
2019-03-23T01:12:32.581Z,5.11
2019-03-23T01:15:05.852Z,5.05
2019-03-23T01:17:37.289Z,4.94
2019-03-23T01:20:13.458Z,4.86
2019-03-23T01:22:44.731Z,4.77
2019-03-23T01:25:16.034Z,4.70
2019-03-23T01:27:47.302Z,4.68
2019-03-23T01:30:19.596Z,4.65
2019-03-23T01:32:50.964Z,4.60
2019-03-23T01:35:22.275Z,4.54
2019-03-23T01:37:53.518Z,4.53
2019-03-23T01:40:24.883Z,4.48
2019-03-23T01:42:57.871Z,4.45
2019-03-23T01:45:29.167Z,4.49
2019-03-23T01:48:00.439Z,4.40
2019-03-23T01:50:31.672Z,4.42
2019-03-23T01:53:02.947Z,4.41
2019-03-23T01:55:34.176Z,4.50
2019-03-23T01:58:05.520Z,4.50
2019-03-23T02:00:38.039Z,4.44
2019-03-23T02:03:09.523Z,4.38
2019-03-23T02:05:40.824Z,4.41
2019-03-23T02:08:12.199Z,4.32
2019-03-23T02:10:43.432Z,4.24
2019-03-23T02:13:14.730Z,4.22
2019-03-23T02:15:46.053Z,4.24
2019-03-23T02:18:17.381Z,4.25
2019-03-23T02:20:48.810Z,4.18
2019-03-23T02:23:21.071Z,4.12
2019-03-23T02:25:52.414Z,4.10
2019-03-23T02:28:23.734Z,4.08
2019-03-23T02:30:55.106Z,3.98
2019-03-23T02:33:26.338Z,3.91
2019-03-23T02:35:57.691Z,3.89
2019-03-23T02:38:30.007Z,3.82
2019-03-23T02:41:01.249Z,3.78
2019-03-23T02:43:32.764Z,3.73
2019-03-23T02:46:04.005Z,3.81
2019-03-23T02:48:35.285Z,3.79
2019-03-23T02:51:06.610Z,3.74
2019-03-23T02:53:37.960Z,3.77
2019-03-23T02:56:09.202Z,3.71
2019-03-23T02:58:41.688Z,3.70
2019-03-23T03:01:12.906Z,3.72
2019-03-23T03:03:44.259Z,3.73
2019-03-23T03:06:15.568Z,3.80
2019-03-23T03:08:46.948Z,3.76
2019-03-23T03:11:18.256Z,3.79
2019-03-23T03:13:49.545Z,3.73
2019-03-23T03:16:20.922Z,3.73
2019-03-23T03:18:52.257Z,3.73
2019-03-23T03:21:23.735Z,3.76
2019-03-23T03:23:55.092Z,3.65
2019-03-23T03:26:26.405Z,3.56
2019-03-23T03:28:57.818Z,3.44
2019-03-23T03:31:29.177Z,3.32
2019-03-23T03:34:00.590Z,3.34
2019-03-23T03:36:33.020Z,3.39
2019-03-23T03:39:05.993Z,3.36
2019-03-23T03:41:37.670Z,3.37
2019-03-23T03:44:09.089Z,3.52
2019-03-23T03:46:40.325Z,3.38
2019-03-23T03:49:12.906Z,3.36
2019-03-23T03:51:44.409Z,3.37
2019-03-23T03:54:15.698Z,3.36
2019-03-23T03:56:46.967Z,3.30
2019-03-23T03:59:18.412Z,3.31
2019-03-23T04:01:55.786Z,3.32
2019-03-23T04:04:27.194Z,3.25
2019-03-23T04:06:58.509Z,3.16
2019-03-23T04:09:29.797Z,3.16
2019-03-23T04:12:01.232Z,3.18
2019-03-23T04:14:32.748Z,3.19
2019-03-23T04:17:06.641Z,3.14
2019-03-23T04:19:38.012Z,3.08
2019-03-23T04:22:09.316Z,3.04
2019-03-23T04:24:40.616Z,2.96
2019-03-23T04:27:11.884Z,2.93
2019-03-23T04:29:43.154Z,2.94
2019-03-23T04:32:14.437Z,2.94
2019-03-23T04:34:45.668Z,2.98
2019-03-23T04:37:18.089Z,2.98
2019-03-23T04:39:49.325Z,2.95
2019-03-23T04:42:20.700Z,2.88
2019-03-23T04:44:52.044Z,2.85
2019-03-23T04:47:23.360Z,2.83
2019-03-23T04:49:54.632Z,2.80
2019-03-23T04:52:26.041Z,2.76
2019-03-23T04:54:57.323Z,2.71
2019-03-23T04:57:28.657Z,2.67
2019-03-23T05:00:01.118Z,2.70
2019-03-23T05:02:32.564Z,2.67
2019-03-23T05:05:04.874Z,2.66
2019-03-23T05:07:36.185Z,2.64
2019-03-23T05:10:10.152Z,2.61
2019-03-23T05:12:41.454Z,2.60
2019-03-23T05:15:14.824Z,2.55
2019-03-23T05:17:46.058Z,2.52
2019-03-23T05:20:29.593Z,2.51
2019-03-23T05:23:00.968Z,2.60
2019-03-23T05:25:34.363Z,2.52
2019-03-23T05:28:05.746Z,2.52
2019-03-23T05:30:37.093Z,2.60
2019-03-23T05:33:08.352Z,2.61
2019-03-23T05:35:39.685Z,2.57
2019-03-23T05:38:11.107Z,2.60
2019-03-23T05:40:42.585Z,2.54
2019-03-23T05:43:13.822Z,2.63
2019-03-23T05:45:45.128Z,2.64
2019-03-23T05:48:16.377Z,2.57
2019-03-23T05:50:47.729Z,2.54
2019-03-23T05:53:18.966Z,2.55
2019-03-23T05:55:50.341Z,2.58
2019-03-23T05:58:21.596Z,2.66
2019-03-23T06:00:53.012Z,2.76
2019-03-23T06:03:24.324Z,2.75
2019-03-23T06:05:57.665Z,2.75
2019-03-23T06:08:28.901Z,2.68
2019-03-23T06:11:00.226Z,2.62
2019-03-23T06:13:31.459Z,2.56
2019-03-23T06:16:03.877Z,2.53
2019-03-23T06:18:35.115Z,2.52
2019-03-23T06:21:06.488Z,2.54
2019-03-23T06:23:37.724Z,2.55
2019-03-23T06:26:09.802Z,2.60
2019-03-23T06:28:41.080Z,2.63
2019-03-23T06:31:12.459Z,2.71
2019-03-23T06:33:44.902Z,2.77
2019-03-23T06:36:16.225Z,2.81
2019-03-23T06:38:47.604Z,2.88
2019-03-23T06:41:19.014Z,2.99
2019-03-23T06:43:50.315Z,3.05
2019-03-23T06:46:21.663Z,3.19
2019-03-23T06:48:52.901Z,3.18
2019-03-23T06:51:24.203Z,3.32
2019-03-23T06:53:55.557Z,3.27
2019-03-23T06:56:26.859Z,3.24
2019-03-23T06:58:58.222Z,3.29
2019-03-23T07:01:29.688Z,3.37
2019-03-23T07:04:00.968Z,3.40
2019-03-23T07:06:32.272Z,3.49
2019-03-23T07:09:15.784Z,3.49
2019-03-23T07:11:40.361Z,3.52
2019-03-23T07:14:11.576Z,3.65
2019-03-23T07:16:42.956Z,3.72
2019-03-23T07:19:14.199Z,3.94
2019-03-23T07:21:45.537Z,3.97
2019-03-23T07:24:16.863Z,3.99
2019-03-23T07:26:51.058Z,4.04
2019-03-23T07:29:22.368Z,4.15
2019-03-23T07:31:53.709Z,4.35
2019-03-23T07:34:25.061Z,4.47
2019-03-23T07:36:56.301Z,4.58
2019-03-23T07:39:49.075Z,4.67
2019-03-23T07:42:20.310Z,4.75
2019-03-23T07:44:51.555Z,4.89
2019-03-23T07:47:22.858Z,4.94
2019-03-23T07:49:54.160Z,5.02
2019-03-23T07:52:25.447Z,5.10
2019-03-23T07:54:57.943Z,5.26
2019-03-23T07:57:29.251Z,5.35
2019-03-23T08:00:00.518Z,5.41
2019-03-23T08:02:31.829Z,5.53
2019-03-23T08:05:03.263Z,5.69
2019-03-23T08:07:34.567Z,5.79
2019-03-23T08:10:08.333Z,5.95
2019-03-23T08:12:39.578Z,6.07
2019-03-23T08:15:11.253Z,6.23
2019-03-23T08:17:42.852Z,6.34
2019-03-23T08:20:14.160Z,6.53
2019-03-23T08:22:45.616Z,6.71
2019-03-23T08:25:16.989Z,6.91
2019-03-23T08:27:49.751Z,7.05
2019-03-23T08:30:21.137Z,7.20
2019-03-23T08:32:52.591Z,7.32
2019-03-23T08:35:23.992Z,7.45
2019-03-23T08:37:56.414Z,7.63
2019-03-23T08:40:27.775Z,7.82
2019-03-23T08:42:59.207Z,7.94
2019-03-23T08:45:30.580Z,8.09
2019-03-23T08:48:02.439Z,8.28
2019-03-23T08:50:33.929Z,8.41
2019-03-23T08:53:05.479Z,8.54
2019-03-23T08:55:36.985Z,8.70
2019-03-23T08:58:08.233Z,8.82
2019-03-23T09:00:39.671Z,8.95
2019-03-23T09:03:11.024Z,9.05
2019-03-23T09:05:42.374Z,9.19
2019-03-23T09:08:13.826Z,9.34
2019-03-23T09:10:45.244Z,9.49
2019-03-23T09:13:16.506Z,9.66
2019-03-23T09:15:47.950Z,9.85
2019-03-23T09:18:20.961Z,9.97
2019-03-23T09:20:52.358Z,10.11
2019-03-23T09:23:23.914Z,10.24
2019-03-23T09:25:55.291Z,10.37
2019-03-23T09:28:26.775Z,10.53
2019-03-23T09:30:58.029Z,10.68
2019-03-23T09:33:29.481Z,10.84
2019-03-23T09:36:02.059Z,10.96
2019-03-23T09:38:33.475Z,11.13
2019-03-23T09:41:04.862Z,11.30
2019-03-23T09:43:36.309Z,11.44
2019-03-23T09:46:09.366Z,11.61
2019-03-23T09:48:40.710Z,11.80
2019-03-23T09:51:12.076Z,11.99
2019-03-23T09:53:43.328Z,12.14
2019-03-23T09:56:14.707Z,12.26
2019-03-23T09:58:46.189Z,12.43
2019-03-23T10:01:18.831Z,12.63
2019-03-23T10:03:50.300Z,12.79
2019-03-23T10:06:22.830Z,12.92
2019-03-23T10:09:01.210Z,13.07
2019-03-23T10:11:34.004Z,13.27
2019-03-23T10:14:05.449Z,13.38
2019-03-23T10:16:36.707Z,13.54
2019-03-23T10:19:08.075Z,13.72
2019-03-23T10:21:40.955Z,13.84
2019-03-23T10:24:13.522Z,13.98
2019-03-23T10:26:44.850Z,14.19
2019-03-23T10:29:17.152Z,14.27
2019-03-23T10:31:48.522Z,14.42
2019-03-23T10:34:19.808Z,14.63
2019-03-23T10:36:51.133Z,14.73
2019-03-23T10:39:22.760Z,14.82
2019-03-23T10:41:54.018Z,14.96
2019-03-23T10:44:25.327Z,15.14
2019-03-23T10:46:56.674Z,15.21
2019-03-23T10:49:27.995Z,15.42
2019-03-23T10:51:59.318Z,15.52
2019-03-23T10:54:30.683Z,15.71
2019-03-23T10:57:02.195Z,15.91
2019-03-23T10:59:33.455Z,16.00
2019-03-23T11:02:04.949Z,16.18
2019-03-23T11:04:36.267Z,16.39
2019-03-23T11:07:07.636Z,16.60
2019-03-23T11:09:38.945Z,16.75
2019-03-23T11:12:10.244Z,16.83
2019-03-23T11:14:41.557Z,16.98
2019-03-23T11:17:12.882Z,16.97
2019-03-23T11:19:44.237Z,17.20
2019-03-23T11:22:15.520Z,17.39
2019-03-23T11:24:46.850Z,17.38
2019-03-23T11:27:18.110Z,17.52
2019-03-23T11:29:49.415Z,17.70
2019-03-23T11:32:20.737Z,17.76
2019-03-23T11:34:52.533Z,17.89
2019-03-23T11:37:23.987Z,18.03
2019-03-23T11:39:57.412Z,18.02
2019-03-23T11:42:30.187Z,17.95
2019-03-23T11:45:01.493Z,18.11
2019-03-23T11:47:50.699Z,18.04
2019-03-23T11:50:22.328Z,17.86
2019-03-23T11:52:53.719Z,18.10
2019-03-23T11:55:31.359Z,18.22
2019-03-23T11:58:02.842Z,18.31
2019-03-23T12:00:36.163Z,18.52
2019-03-23T12:03:07.657Z,18.77
2019-03-23T12:05:38.934Z,18.88
2019-03-23T12:08:10.728Z,18.99
2019-03-23T12:10:43.085Z,19.26
2019-03-23T12:13:21.657Z,19.26
2019-03-23T12:15:52.979Z,19.49
2019-03-23T12:18:24.703Z,19.49
2019-03-23T12:20:59.904Z,19.00
2019-03-23T12:23:31.347Z,18.82
2019-03-23T12:26:02.925Z,18.88
2019-03-23T12:28:36.862Z,19.18
2019-03-23T12:31:10.785Z,19.39
2019-03-23T12:33:43.878Z,19.59
2019-03-23T12:36:16.679Z,19.71
2019-03-23T12:38:48.185Z,19.98
2019-03-23T12:41:23.300Z,20.25
2019-03-23T12:43:54.646Z,20.26
2019-03-23T12:46:27.974Z,20.44
2019-03-23T12:48:59.503Z,20.59
2019-03-23T12:51:30.966Z,20.39
2019-03-23T12:54:02.439Z,20.52
2019-03-23T12:56:35.420Z,20.71
2019-03-23T12:59:06.752Z,20.97
2019-03-23T13:04:08.733Z,21.21
2019-03-23T13:06:40.203Z,21.15
2019-03-23T13:09:12.683Z,21.12
2019-03-23T13:11:57.254Z,20.64
2019-03-23T13:14:28.555Z,20.73
2019-03-23T13:16:59.804Z,20.71
2019-03-23T13:19:31.287Z,20.98
2019-03-23T13:22:02.682Z,20.95
2019-03-23T13:24:34.139Z,20.82
2019-03-23T13:27:08.449Z,20.84
2019-03-23T13:29:42.798Z,20.91
2019-03-23T13:32:18.679Z,20.74
2019-03-23T13:34:50.458Z,21.08
2019-03-23T13:37:21.877Z,21.07
2019-03-23T13:39:53.309Z,21.24
2019-03-23T13:42:24.826Z,21.41
2019-03-23T13:44:56.268Z,21.51
2019-03-23T13:47:27.560Z,21.18
2019-03-23T13:49:59.015Z,21.06
2019-03-23T13:52:30.278Z,20.87
2019-03-23T13:55:01.573Z,21.22
2019-03-23T13:57:32.965Z,21.47
2019-03-23T14:00:07.307Z,21.54
2019-03-23T14:02:41.778Z,21.60
2019-03-23T14:05:16.253Z,21.01
2019-03-23T14:07:47.184Z,21.20
2019-03-23T14:10:18.909Z,21.32
2019-03-23T14:12:51.580Z,21.38
2019-03-23T14:15:23.893Z,21.48
2019-03-23T14:17:55.400Z,21.27
2019-03-23T14:20:26.815Z,21.14
2019-03-23T14:23:02.675Z,21.04
2019-03-23T14:25:31.377Z,21.45
2019-03-23T14:28:03.763Z,21.61
2019-03-23T14:30:35.405Z,21.34
2019-03-23T14:33:06.884Z,20.99
2019-03-23T14:35:38.201Z,21.28
2019-03-23T14:38:09.582Z,21.49
2019-03-23T14:40:41.434Z,21.53
2019-03-23T14:43:14.768Z,21.69
2019-03-23T14:45:46.094Z,21.60
2019-03-23T14:48:19.817Z,21.61
2019-03-23T14:50:51.142Z,21.56
2019-03-23T14:53:24.573Z,21.65
2019-03-23T14:55:56.296Z,21.64
2019-03-23T15:00:04.362Z,21.80
2019-03-23T15:02:24.096Z,21.90
2019-03-23T15:04:55.658Z,21.85
2019-03-23T15:07:27.310Z,21.70
2019-03-23T15:10:00.411Z,21.66
2019-03-23T15:12:37.540Z,21.79
2019-03-23T15:15:09.744Z,21.70
2019-03-23T15:17:48.734Z,21.72
2019-03-23T15:20:16.359Z,21.65
2019-03-23T15:22:47.853Z,21.61
2019-03-23T15:25:19.713Z,21.70
2019-03-23T15:27:51.046Z,21.71
2019-03-23T15:30:22.875Z,21.75
2019-03-23T15:32:55.270Z,21.68
2019-03-23T15:35:26.663Z,21.03
2019-03-23T15:37:58.917Z,20.73
2019-03-23T15:40:31.658Z,20.34
2019-03-23T15:43:03.056Z,20.33
2019-03-23T15:45:36.387Z,20.35
2019-03-23T15:48:07.758Z,20.43
2019-03-23T15:50:39.204Z,20.20
2019-03-23T15:53:10.566Z,20.16
2019-03-23T15:55:42.023Z,20.25
2019-03-23T15:58:13.539Z,20.17
2019-03-23T16:00:48.244Z,20.10
2019-03-23T16:03:19.699Z,19.75
2019-03-23T16:05:51.143Z,19.51
2019-03-23T16:08:24.013Z,19.72
2019-03-23T16:10:55.707Z,19.50
2019-03-23T16:13:27.207Z,19.26
2019-03-23T16:15:58.595Z,19.03
2019-03-23T16:18:30.199Z,18.77
2019-03-23T16:21:01.656Z,18.38
2019-03-23T16:23:33.119Z,18.01
2019-03-23T16:26:04.689Z,17.95
2019-03-23T16:28:36.065Z,17.63
2019-03-23T16:31:07.481Z,17.33
2019-03-23T16:33:39.213Z,17.27
2019-03-23T16:36:12.455Z,17.14
2019-03-23T16:38:45.430Z,16.76
2019-03-23T16:41:16.725Z,16.48
2019-03-23T16:43:49.636Z,16.14
2019-03-23T16:46:21.083Z,16.00
2019-03-23T16:48:52.409Z,15.76
2019-03-23T16:51:24.110Z,15.63
2019-03-23T16:53:55.653Z,15.33
2019-03-23T16:56:28.542Z,15.19
2019-03-23T16:58:59.977Z,15.21
2019-03-23T17:01:31.398Z,14.92
2019-03-23T17:04:02.691Z,14.79
2019-03-23T17:06:34.816Z,14.57
2019-03-23T17:09:06.995Z,14.27
2019-03-23T17:11:38.610Z,14.23
2019-03-23T17:14:09.931Z,14.09
2019-03-23T17:16:42.951Z,14.03
2019-03-23T17:19:15.854Z,13.97
2019-03-23T17:21:47.291Z,13.87
2019-03-23T17:24:18.766Z,13.60
2019-03-23T17:26:50.791Z,13.58
2019-03-23T17:29:25.618Z,13.30
2019-03-23T17:31:57.221Z,13.09
2019-03-23T17:34:30.550Z,13.00
2019-03-23T17:37:03.174Z,12.97
2019-03-23T17:39:36.606Z,12.81
2019-03-23T17:42:08.282Z,12.71
2019-03-23T17:44:42.165Z,12.66
2019-03-23T17:47:13.776Z,12.58
2019-03-23T17:49:47.202Z,12.52
2019-03-23T17:52:18.661Z,12.44
2019-03-23T17:54:49.982Z,12.34
2019-03-23T17:57:23.069Z,12.23
2019-03-23T17:59:54.512Z,12.12
2019-03-23T18:02:38.318Z,12.05
2019-03-23T18:05:12.421Z,11.85
2019-03-23T18:07:44.093Z,11.72
2019-03-23T18:10:15.783Z,11.55
2019-03-23T18:12:47.319Z,11.46
2019-03-23T18:15:18.790Z,11.37
2019-03-23T18:17:51.259Z,11.27
2019-03-23T18:20:22.903Z,11.23
2019-03-23T18:22:54.297Z,11.14
2019-03-23T18:25:25.747Z,11.14
2019-03-23T18:27:57.117Z,11.11
2019-03-23T18:30:43.414Z,11.04
2019-03-23T18:33:14.867Z,10.98
2019-03-23T18:35:46.206Z,10.97
2019-03-23T18:38:17.830Z,10.96
2019-03-23T18:40:49.989Z,10.84
2019-03-23T18:43:27.353Z,11.01
2019-03-23T18:45:54.532Z,10.94
2019-03-23T18:48:25.866Z,10.79
2019-03-23T18:50:57.326Z,10.59
2019-03-23T18:53:28.709Z,10.47
2019-03-23T18:56:00.490Z,10.42
2019-03-23T18:58:32.091Z,10.37
2019-03-23T19:01:03.686Z,10.35
2019-03-23T19:03:35.149Z,10.29
2019-03-23T19:06:06.622Z,10.22
2019-03-23T19:08:38.151Z,10.17
2019-03-23T19:11:15.025Z,10.11
2019-03-23T19:13:46.704Z,10.11
2019-03-23T19:16:18.946Z,10.05
2019-03-23T19:18:50.430Z,9.98
2019-03-23T19:21:21.678Z,9.98
2019-03-23T19:23:53.321Z,9.96
2019-03-23T19:26:25.036Z,9.91
2019-03-23T19:28:56.594Z,9.89
2019-03-23T19:31:28.052Z,9.86
2019-03-23T19:33:59.345Z,9.85
2019-03-23T19:36:30.658Z,9.84
2019-03-23T19:39:07.460Z,9.82
2019-03-23T19:41:38.934Z,9.81
2019-03-23T19:44:10.380Z,9.75
2019-03-23T19:46:41.684Z,9.73
2019-03-23T19:49:14.780Z,9.72
2019-03-23T19:51:46.014Z,9.71
2019-03-23T19:54:17.424Z,9.69
2019-03-23T19:56:48.771Z,9.69
2019-03-23T19:59:21.709Z,9.67
2019-03-23T20:01:52.958Z,9.64
2019-03-23T20:04:24.485Z,9.65
2019-03-23T20:06:55.790Z,9.62
2019-03-23T20:09:27.198Z,9.61
2019-03-23T20:11:58.534Z,9.59
2019-03-23T20:14:29.953Z,9.56
2019-03-23T20:17:01.395Z,9.56
2019-03-23T20:19:33.296Z,9.54
2019-03-23T20:22:04.707Z,9.53
2019-03-23T20:24:37.134Z,9.52
2019-03-23T20:27:08.458Z,9.52
2019-03-23T20:29:39.894Z,9.49
2019-03-23T20:32:11.306Z,9.47
2019-03-23T20:34:42.683Z,9.46
2019-03-23T20:37:14.275Z,9.46
2019-03-23T20:39:47.631Z,9.46
2019-03-23T20:42:19.851Z,9.42
2019-03-23T20:44:51.143Z,9.42
2019-03-23T20:47:22.898Z,9.39
2019-03-23T20:49:54.516Z,9.35
2019-03-23T20:52:25.974Z,9.35
2019-03-23T20:54:57.530Z,9.32
2019-03-23T20:57:37.710Z,9.30
2019-03-23T21:00:09.563Z,9.27
2019-03-23T21:02:40.872Z,9.25
2019-03-23T21:05:12.677Z,9.25
2019-03-23T21:07:44.272Z,9.22
2019-03-23T21:10:15.839Z,9.21
2019-03-23T21:12:48.570Z,9.18
2019-03-23T21:15:21.481Z,9.14
2019-03-23T21:17:52.966Z,9.16
2019-03-23T21:20:25.978Z,9.16
2019-03-23T21:22:57.234Z,9.14
2019-03-23T21:25:28.666Z,9.13
2019-03-23T21:27:59.957Z,9.11
2019-03-23T21:30:31.339Z,9.06
2019-03-23T21:33:02.677Z,9.01
2019-03-23T21:35:33.980Z,9.01
2019-03-23T21:38:05.483Z,8.99
2019-03-23T21:40:37.013Z,8.96
2019-03-23T21:43:08.478Z,8.95
2019-03-23T21:45:39.839Z,8.93
2019-03-23T21:48:11.078Z,8.90
2019-03-23T21:50:47.476Z,8.88
2019-03-23T21:53:15.331Z,8.83
2019-03-23T21:55:46.751Z,8.81
2019-03-23T21:58:18.059Z,8.77
2019-03-23T22:00:49.443Z,8.76
2019-03-23T22:03:20.681Z,8.73
2019-03-23T22:05:52.058Z,8.73
2019-03-23T22:08:23.435Z,8.68
2019-03-23T22:10:54.796Z,8.65
2019-03-23T22:13:26.079Z,8.61
2019-03-23T22:15:57.465Z,8.61
2019-03-23T22:18:28.713Z,8.60
2019-03-23T22:21:00.087Z,8.58
2019-03-23T22:23:32.493Z,8.55
2019-03-23T22:26:03.774Z,8.50
2019-03-23T22:28:36.098Z,8.49
2019-03-23T22:31:07.563Z,8.49
2019-03-23T22:33:38.851Z,8.50
2019-03-23T22:36:10.224Z,8.47
2019-03-23T22:38:41.966Z,8.47
2019-03-23T22:41:13.331Z,8.46
2019-03-23T22:43:44.755Z,8.43
2019-03-23T22:46:16.034Z,8.41
2019-03-23T22:48:47.501Z,8.40
2019-03-23T22:51:19.022Z,8.36
2019-03-23T22:53:55.195Z,8.38
2019-03-23T22:56:25.981Z,8.38
2019-03-23T22:58:57.223Z,8.36
2019-03-23T23:01:28.590Z,8.38
2019-03-23T23:04:00.098Z,8.37
2019-03-23T23:06:31.519Z,8.37
2019-03-23T23:09:02.831Z,8.34
2019-03-23T23:11:35.206Z,8.31
2019-03-23T23:14:06.652Z,8.32
2019-03-23T23:16:38.012Z,8.32
2019-03-23T23:19:09.251Z,8.29
2019-03-23T23:21:40.625Z,8.30
2019-03-23T23:24:11.866Z,8.29
2019-03-23T23:26:43.226Z,8.28
2019-03-23T23:29:14.537Z,8.24
2019-03-23T23:31:45.901Z,8.22
2019-03-23T23:34:17.212Z,8.20
2019-03-23T23:36:48.618Z,8.16
2019-03-23T23:39:20.924Z,8.14
2019-03-23T23:41:52.276Z,8.13
2019-03-23T23:44:23.585Z,8.11
2019-03-23T23:46:54.968Z,8.10
2019-03-23T23:49:26.324Z,8.09
2019-03-23T23:51:57.634Z,8.07
2019-03-23T23:54:28.928Z,8.03
2019-03-23T23:57:00.351Z,8.01
2019-03-23T23:59:31.753Z,7.99
